Time;durP1;ratioP1;P1;durP2;ratioP2;P2;SDS_P1;SDS_P2;PMS_P1;PMS_P2;Temp;Humidity;BMP_temperature;BMP_pressure;BME280_temperature;BME280_humidity;BME280_pressure;Samples;Min_cycle;Max_cycle;Signal;HPM_P1;HPM_P2
2022/01/26 00:07:19;;;;;;;1.90;1.73;;;1.80;99.90;;;;;;5248441;28;20398;-74
2022/01/26 00:09:52;;;;;;;1.00;1.00;;;1.80;99.90;;;;;;5265805;28;20020;-75
2022/01/26 00:12:23;;;;;;;3.92;3.17;;;1.80;99.90;;;;;;5278753;28;20031;-74
2022/01/26 00:14:54;;;;;;;1.55;1.52;;;1.80;99.90;;;;;;5262882;28;20031;-74
2022/01/26 00:17:24;;;;;;;0.98;0.98;;;1.70;99.90;;;;;;5229495;28;20335;-74
2022/01/26 00:39:06;;;;;;;1.00;1.00;;;1.70;99.90;;;;;;5289794;28;20026;-73
2022/01/26 00:41:39;;;;;;;0.43;0.43;;;1.70;99.90;;;;;;5268634;28;20032;-74
2022/01/26 00:44:13;;;;;;;1.00;1.00;;;1.80;99.90;;;;;;5280065;28;20032;-74
2022/01/26 00:46:48;;;;;;;0.60;0.60;;;1.80;99.90;;;;;;5264347;28;20023;-74
2022/01/26 00:49:21;;;;;;;1.00;1.00;;;1.70;99.90;;;;;;5266736;28;20499;-74
2022/01/26 00:51:53;;;;;;;1.38;1.30;;;1.70;99.90;;;;;;5284189;28;20026;-74
2022/01/26 00:54:27;;;;;;;0.60;0.60;;;1.70;99.90;;;;;;5284995;28;20015;-74
2022/01/26 00:56:58;;;;;;;2.17;2.08;;;1.70;99.90;;;;;;5282801;28;20011;-74
2022/01/26 00:59:30;;;;;;;3.83;3.28;;;1.70;99.90;;;;;;5285112;28;20019;-74
2022/01/26 01:02:06;;;;;;;0.50;0.50;;;1.70;99.90;;;;;;5284556;28;20027;-74
2022/01/26 01:04:40;;;;;;;0.70;0.70;;;1.70;99.90;;;;;;5268958;28;20040;-74
2022/01/26 01:07:18;;;;;;;1.13;1.13;;;1.70;99.90;;;;;;5270989;28;20022;-74
2022/01/26 01:09:54;;;;;;;1.00;1.00;;;1.70;99.90;;;;;;5284953;28;20058;-74
2022/01/26 01:12:29;;;;;;;0.82;0.82;;;1.70;99.90;;;;;;5265005;28;20023;-74
2022/01/26 01:14:59;;;;;;;0.60;0.60;;;1.70;99.90;;;;;;5263742;28;20141;-74
2022/01/26 01:17:41;;;;;;;1.23;1.23;;;1.70;99.90;;;;;;5228871;28;20028;-76
2022/01/26 01:29:07;;;;;;;1.05;1.05;;;1.80;99.90;;;;;;5267543;28;20482;-73
2022/01/26 01:34:18;;;;;;;1.30;1.30;;;1.80;99.90;;;;;;5283389;27;20062;-74
2022/01/26 01:36:53;;;;;;;0.50;0.50;;;1.80;99.90;;;;;;5265715;28;20487;-74
2022/01/26 01:39:23;;;;;;;0.70;0.70;;;1.80;99.90;;;;;;5266275;28;20237;-74
2022/01/26 01:41:54;;;;;;;2.80;2.63;;;1.70;99.90;;;;;;5283457;28;20030;-74
2022/01/26 01:44:25;;;;;;;0.80;0.80;;;1.70;99.90;;;;;;5283950;28;20028;-73
2022/01/26 01:47:01;;;;;;;0.82;0.82;;;1.70;99.90;;;;;;5265985;28;20344;-74
2022/01/26 01:49:36;;;;;;;1.08;1.05;;;1.60;99.90;;;;;;5283217;28;20213;-74
2022/01/26 01:52:13;;;;;;;0.70;0.70;;;1.60;99.90;;;;;;5271464;28;20058;-74
2022/01/26 01:54:54;;;;;;;0.90;0.90;;;1.60;99.90;;;;;;5266149;28;20083;-75
2022/01/26 01:57:26;;;;;;;1.52;1.48;;;1.60;99.90;;;;;;5285418;28;20030;-75
2022/01/26 01:59:56;;;;;;;0.85;0.85;;;1.60;99.90;;;;;;5248861;28;20355;-74
2022/01/26 02:02:27;;;;;;;0.77;0.77;;;1.60;99.90;;;;;;5246532;28;20051;-74
2022/01/26 02:05:02;;;;;;;0.90;0.90;;;1.60;99.90;;;;;;5272340;28;20639;-75
2022/01/26 02:07:33;;;;;;;0.60;0.60;;;1.60;99.90;;;;;;5282459;28;20034;-76
2022/01/26 02:10:07;;;;;;;2.00;1.90;;;1.60;99.90;;;;;;5282882;28;20027;-74
2022/01/26 02:12:46;;;;;;;;;;;1.60;99.90;;;;;;5264849;28;20019;-74
2022/01/26 02:15:23;;;;;;;0.85;0.85;;;1.50;99.90;;;;;;5280715;28;19912;-74
2022/01/26 02:21:05;;;;;;;0.70;0.70;;;1.50;99.90;;;;;;5283175;28;20024;-75
2022/01/26 02:52:07;;;;;;;0.80;0.80;;;1.50;99.90;;;;;;5280857;28;20012;-74
2022/01/26 03:00:28;;;;;;;0.60;0.60;;;1.50;99.90;;;;;;5279137;28;20031;-73
2022/01/26 03:03:14;;;;;;;0.70;0.70;;;1.50;99.90;;;;;;5282042;28;20011;-74
2022/01/26 03:05:54;;;;;;;0.80;0.80;;;1.50;99.90;;;;;;5271369;28;20043;-75
2022/01/26 03:08:34;;;;;;;0.55;0.55;;;1.50;99.90;;;;;;5263314;28;20057;-75
2022/01/26 03:11:12;;;;;;;0.50;0.50;;;1.60;99.90;;;;;;5264300;28;20476;-75
2022/01/26 03:13:58;;;;;;;1.15;1.15;;;1.60;99.90;;;;;;5265571;28;20196;-75
2022/01/26 03:16:38;;;;;;;0.88;0.88;;;1.60;99.90;;;;;;5261295;28;20065;-75
2022/01/26 03:19:23;;;;;;;3.70;1.85;;;1.50;99.90;;;;;;5281401;28;20392;-75
2022/01/26 03:35:50;;;;;;;3.30;3.10;;;1.50;99.90;;;;;;5281793;28;20046;-73
2022/01/26 03:38:39;;;;;;;0.80;0.80;;;1.50;99.90;;;;;;5282590;28;20024;-74
2022/01/26 03:42:15;;;;;;;1.15;1.15;;;1.50;99.90;;;;;;5263769;28;20038;-73
2022/01/26 03:44:14;;;;;;;2.28;2.17;;;1.50;99.90;;;;;;5272803;28;20088;-74
2022/01/26 03:46:46;;;;;;;1.02;1.02;;;1.50;99.90;;;;;;5282642;28;20042;-74
2022/01/26 03:49:17;;;;;;;1.27;1.27;;;1.50;99.90;;;;;;5281950;28;20059;-74
2022/01/26 03:51:48;;;;;;;1.05;1.05;;;1.60;99.90;;;;;;5251205;28;20039;-74
2022/01/26 03:54:22;;;;;;;1.02;1.02;;;1.60;99.90;;;;;;5261635;28;20583;-74
2022/01/26 03:56:55;;;;;;;1.48;1.38;;;1.60;99.90;;;;;;5265005;28;20020;-74
2022/01/26 03:59:26;;;;;;;0.67;0.67;;;1.60;99.90;;;;;;5280018;28;20035;-74
2022/01/26 04:01:59;;;;;;;1.88;1.70;;;1.60;99.90;;;;;;5283212;28;20008;-74
2022/01/26 04:04:39;;;;;;;0.70;0.70;;;1.60;99.90;;;;;;5272383;28;20052;-74
2022/01/26 04:07:10;;;;;;;0.88;0.88;;;1.60;99.90;;;;;;5265008;28;20099;-74
2022/01/26 04:09:43;;;;;;;0.65;0.65;;;1.70;99.90;;;;;;5282633;28;20019;-74
2022/01/26 04:12:14;;;;;;;0.50;0.50;;;1.60;99.90;;;;;;5259847;28;20028;-75
2022/01/26 04:14:57;;;;;;;0.52;0.52;;;1.60;99.90;;;;;;5241603;28;20346;-73
2022/01/26 04:17:28;;;;;;;0.60;0.60;;;1.70;99.90;;;;;;5247511;28;20030;-74
2022/01/26 04:19:59;;;;;;;0.65;0.65;;;1.60;99.90;;;;;;5285551;28;20011;-74
2022/01/26 04:22:47;;;;;;;0.75;0.75;;;1.60;99.90;;;;;;5268049;28;20040;-74
2022/01/26 04:25:23;;;;;;;0.60;0.60;;;1.60;99.90;;;;;;5266534;28;20027;-74
2022/01/26 04:28:02;;;;;;;0.40;0.40;;;1.60;99.90;;;;;;5262613;28;20027;-76
2022/01/26 04:30:32;;;;;;;1.30;1.30;;;1.60;99.90;;;;;;5266318;28;20028;-74
2022/01/26 04:33:06;;;;;;;1.00;1.00;;;1.60;99.90;;;;;;5286533;28;20030;-74
2022/01/26 04:35:42;;;;;;;0.82;0.82;;;1.60;99.90;;;;;;5286108;28;20023;-74
2022/01/26 04:41:26;;;;;;;2.25;1.90;;;1.60;99.90;;;;;;5267831;28;20511;-74
2022/01/26 04:43:46;;;;;;;0.50;0.50;;;1.60;99.90;;;;;;5283929;28;20028;-73
2022/01/26 04:46:19;;;;;;;0.90;0.90;;;1.60;99.90;;;;;;5285249;28;20036;-73
2022/01/26 04:48:55;;;;;;;0.70;0.70;;;1.60;99.90;;;;;;5268326;28;20032;-76
2022/01/26 04:51:26;;;;;;;1.55;1.45;;;1.60;99.90;;;;;;5285585;28;20092;-73
2022/01/26 04:54:04;;;;;;;1.33;1.33;;;1.60;99.90;;;;;;5284177;28;20020;-74
2022/01/26 04:56:37;;;;;;;1.10;1.10;;;1.60;99.90;;;;;;5262372;28;20019;-74
2022/01/26 04:59:13;;;;;;;3.83;1.80;;;1.60;99.90;;;;;;5285667;28;20307;-74
2022/01/26 05:01:47;;;;;;;0.80;0.80;;;1.70;99.90;;;;;;5285183;28;20077;-74
2022/01/26 05:04:21;;;;;;;0.47;0.47;;;1.60;99.90;;;;;;5256980;28;20047;-74
2022/01/26 05:06:54;;;;;;;0.60;0.60;;;1.70;99.90;;;;;;5278266;28;20038;-74
2022/01/26 05:09:24;;;;;;;1.25;1.25;;;1.70;99.90;;;;;;5275569;28;20333;-74
2022/01/26 05:12:01;;;;;;;1.80;1.73;;;1.70;99.90;;;;;;5285224;28;20019;-75
2022/01/26 05:14:44;;;;;;;0.93;0.93;;;1.70;99.90;;;;;;5268468;28;20023;-74
2022/01/26 05:17:19;;;;;;;1.58;1.48;;;1.70;99.90;;;;;;5280198;28;20024;-74
2022/01/26 05:19:56;;;;;;;1.63;1.52;;;1.70;99.90;;;;;;5266122;28;20084;-73
2022/01/26 05:22:33;;;;;;;0.60;0.60;;;1.70;99.90;;;;;;5267989;28;20019;-74
2022/01/26 05:25:07;;;;;;;0.90;0.90;;;1.70;99.90;;;;;;5278412;28;20024;-74
2022/01/26 05:27:41;;;;;;;0.70;0.70;;;1.70;99.90;;;;;;5266193;28;20044;-74
2022/01/26 05:30:12;;;;;;;0.60;0.60;;;1.70;99.90;;;;;;5278617;28;20028;-73
2022/01/26 05:32:42;;;;;;;1.25;1.25;;;1.70;99.90;;;;;;5276108;28;20020;-75
2022/01/26 05:35:15;;;;;;;1.65;1.63;;;1.60;99.90;;;;;;5284769;28;20039;-75
2022/01/26 05:37:49;;;;;;;0.50;0.50;;;1.60;99.90;;;;;;5284849;28;20031;-74
2022/01/26 05:40:19;;;;;;;1.20;1.20;;;1.60;99.90;;;;;;5249755;28;20035;-75
2022/01/26 05:42:50;;;;;;;0.93;0.93;;;1.70;99.90;;;;;;5266965;28;20370;-74
2022/01/26 05:45:29;;;;;;;1.58;1.58;;;1.70;99.90;;;;;;5283898;28;20071;-73
2022/01/26 05:48:08;;;;;;;0.43;0.43;;;1.60;99.90;;;;;;5281509;28;20358;-74
2022/01/26 05:50:53;;;;;;;0.60;0.60;;;1.60;99.90;;;;;;5283146;28;20284;-74
2022/01/26 05:53:23;;;;;;;1.45;1.45;;;1.60;99.90;;;;;;5261534;28;20031;-74
2022/01/26 05:55:54;;;;;;;0.73;0.73;;;1.60;99.90;;;;;;5283675;28;20089;-74
2022/01/26 05:58:31;;;;;;;0.98;0.98;;;1.60;99.90;;;;;;5283958;28;20036;-74
2022/01/26 06:01:02;;;;;;;0.60;0.60;;;1.60;99.90;;;;;;5266630;28;20016;-74
2022/01/26 06:03:35;;;;;;;0.40;0.40;;;1.60;99.90;;;;;;5284082;28;20022;-73
2022/01/26 06:06:08;;;;;;;0.50;0.50;;;1.60;99.90;;;;;;5256387;28;20471;-75
2022/01/26 06:08:42;;;;;;;0.60;0.60;;;1.60;99.90;;;;;;5284700;28;20027;-75
2022/01/26 06:11:12;;;;;;;1.17;1.17;;;1.60;99.90;;;;;;5284762;28;20264;-74
2022/01/26 06:13:46;;;;;;;1.33;1.33;;;1.60;99.90;;;;;;5250158;28;20264;-77
2022/01/26 06:16:17;;;;;;;2.42;2.22;;;1.70;99.90;;;;;;5267856;28;20031;-74
2022/01/26 06:18:48;;;;;;;0.47;0.47;;;1.70;99.90;;;;;;5285292;28;20027;-74
2022/01/26 06:21:21;;;;;;;0.50;0.50;;;1.60;99.90;;;;;;5282781;28;20017;-74
2022/01/26 06:23:52;;;;;;;0.90;0.90;;;1.70;99.90;;;;;;5281620;28;20027;-74
2022/01/26 06:26:25;;;;;;;0.60;0.60;;;1.70;99.90;;;;;;5266471;28;20028;-74
2022/01/26 06:28:57;;;;;;;0.80;0.80;;;1.60;99.90;;;;;;5283807;28;20028;-76
2022/01/26 06:31:28;;;;;;;1.58;1.48;;;1.60;99.90;;;;;;5281803;28;20500;-74
2022/01/26 06:34:02;;;;;;;0.80;0.80;;;1.60;99.90;;;;;;5265400;28;20992;-74
2022/01/26 06:36:36;;;;;;;0.77;0.77;;;1.60;99.90;;;;;;5283699;27;20050;-74
2022/01/26 06:39:09;;;;;;;0.80;0.80;;;1.60;99.90;;;;;;5238583;28;20371;-74
2022/01/26 06:41:50;;;;;;;0.57;0.57;;;1.60;99.90;;;;;;5279958;28;20046;-74
2022/01/26 06:44:30;;;;;;;0.75;0.75;;;1.60;99.90;;;;;;5264742;28;20031;-74
2022/01/26 06:49:35;;;;;;;0.70;0.70;;;1.60;99.90;;;;;;5280871;27;20030;-74
2022/01/26 06:52:06;;;;;;;0.50;0.50;;;1.60;99.90;;;;;;5259510;28;20111;-74
2022/01/26 06:54:37;;;;;;;0.45;0.45;;;1.60;99.90;;;;;;5271920;27;20012;-74
2022/01/26 06:57:08;;;;;;;0.77;0.77;;;1.60;99.90;;;;;;5279432;28;20338;-74
2022/01/26 06:59:41;;;;;;;0.98;0.98;;;1.60;99.90;;;;;;5263811;28;20023;-74
2022/01/26 07:02:12;;;;;;;0.52;0.52;;;1.70;99.90;;;;;;5280930;28;20036;-74
2022/01/26 07:04:49;;;;;;;0.80;0.80;;;1.60;99.90;;;;;;5253612;28;20580;-74
2022/01/26 07:07:20;;;;;;;0.70;0.70;;;1.60;99.90;;;;;;5264620;28;20047;-74
2022/01/26 07:09:53;;;;;;;0.50;0.50;;;1.60;99.90;;;;;;5264577;28;20336;-76
2022/01/26 07:12:25;;;;;;;1.27;1.17;;;1.70;99.90;;;;;;5264253;28;20031;-74
2022/01/26 07:23:11;;;;;;;0.80;0.80;;;1.70;99.90;;;;;;5283958;27;20035;-74
2022/01/26 07:25:47;;;;;;;0.50;0.50;;;1.70;99.90;;;;;;5254294;28;20016;-74
2022/01/26 07:28:20;;;;;;;0.70;0.70;;;1.70;99.90;;;;;;5266100;28;20099;-74
2022/01/26 07:30:56;;;;;;;0.93;0.93;;;1.70;99.90;;;;;;5263769;28;20083;-74
2022/01/26 07:33:30;;;;;;;1.20;1.20;;;1.70;99.90;;;;;;5281239;28;20027;-74
2022/01/26 07:36:00;;;;;;;0.60;0.60;;;1.70;99.90;;;;;;5281287;28;20061;-73
2022/01/26 07:38:35;;;;;;;0.85;0.85;;;1.70;99.90;;;;;;5263802;28;20473;-74
2022/01/26 07:41:05;;;;;;;0.50;0.50;;;1.70;99.90;;;;;;5255955;28;20073;-74
2022/01/26 07:43:36;;;;;;;0.50;0.50;;;1.70;99.90;;;;;;5233858;28;20474;-74
2022/01/26 07:46:10;;;;;;;0.57;0.57;;;1.80;99.90;;;;;;5256996;28;20390;-74
2022/01/26 07:48:44;;;;;;;0.65;0.65;;;1.70;99.90;;;;;;5279309;28;20577;-74
2022/01/26 07:51:20;;;;;;;2.00;1.90;;;1.80;99.90;;;;;;5280663;28;20176;-74
2022/01/26 07:53:52;;;;;;;0.63;0.63;;;1.80;99.90;;;;;;5263344;28;20019;-74
2022/01/26 07:56:28;;;;;;;0.70;0.70;;;1.80;99.90;;;;;;5281061;28;20011;-75
2022/01/26 07:58:59;;;;;;;0.50;0.50;;;1.90;99.90;;;;;;5280844;28;20024;-74
2022/01/26 08:01:33;;;;;;;0.57;0.57;;;1.80;99.90;;;;;;5273000;28;20028;-74
2022/01/26 08:04:12;;;;;;;0.80;0.80;;;1.80;99.90;;;;;;5257994;28;20030;-75
2022/01/26 08:06:44;;;;;;;0.57;0.57;;;1.80;99.90;;;;;;5219340;28;20078;-73
2022/01/26 08:09:15;;;;;;;0.70;0.70;;;1.80;99.90;;;;;;5281623;28;20438;-74
2022/01/26 08:11:46;;;;;;;2.45;2.22;;;1.80;99.90;;;;;;5280647;28;20027;-74
2022/01/26 08:14:22;;;;;;;0.47;0.47;;;1.80;99.90;;;;;;5279806;28;20027;-73
2022/01/26 08:16:55;;;;;;;1.02;1.02;;;1.90;99.90;;;;;;5273189;28;20408;-74
2022/01/26 08:19:35;;;;;;;0.52;0.52;;;1.90;99.90;;;;;;5276716;28;20090;-74
2022/01/26 08:22:11;;;;;;;0.80;0.80;;;1.90;99.90;;;;;;5264121;28;20039;-74
2022/01/26 08:24:44;;;;;;;0.50;0.50;;;1.90;99.90;;;;;;5264993;28;20476;-74
2022/01/26 08:27:20;;;;;;;0.63;0.63;;;1.90;99.90;;;;;;5279772;28;20030;-74
2022/01/26 08:29:55;;;;;;;0.82;0.82;;;2.00;99.90;;;;;;5260223;28;20028;-74
2022/01/26 08:32:29;;;;;;;0.55;0.55;;;2.00;99.90;;;;;;5279373;28;20022;-74
2022/01/26 08:35:02;;;;;;;0.88;0.88;;;2.00;99.90;;;;;;5257117;28;20028;-76
2022/01/26 08:37:33;;;;;;;0.47;0.47;;;2.00;99.90;;;;;;5260972;28;20069;-76
2022/01/26 08:40:08;;;;;;;0.70;0.70;;;1.90;99.90;;;;;;5260943;28;20024;-75
2022/01/26 08:42:42;;;;;;;0.40;0.40;;;2.10;99.90;;;;;;5263209;28;20020;-75
2022/01/26 08:45:15;;;;;;;0.50;0.50;;;2.10;99.90;;;;;;5269546;28;20020;-75
2022/01/26 08:47:47;;;;;;;1.02;1.02;;;2.20;99.90;;;;;;5263275;28;20039;-75
2022/01/26 08:50:20;;;;;;;0.57;0.57;;;2.30;99.90;;;;;;5263935;28;20012;-75
2022/01/26 08:52:51;;;;;;;0.90;0.90;;;2.40;99.90;;;;;;5280308;28;20023;-75
2022/01/26 08:55:25;;;;;;;0.55;0.55;;;2.40;99.90;;;;;;5263306;28;20472;-75
2022/01/26 08:57:56;;;;;;;0.60;0.60;;;2.30;99.90;;;;;;5281424;28;20083;-74
2022/01/26 09:00:29;;;;;;;0.60;0.60;;;2.40;99.90;;;;;;5262670;28;20085;-75
2022/01/26 09:03:00;;;;;;;0.40;0.40;;;2.50;99.90;;;;;;5261689;28;20038;-74
2022/01/26 09:05:36;;;;;;;0.60;0.60;;;2.50;99.90;;;;;;5269308;28;20405;-74
2022/01/26 09:08:08;;;;;;;0.55;0.55;;;2.60;99.90;;;;;;5282246;28;20058;-74
2022/01/26 09:10:40;;;;;;;1.15;1.15;;;2.40;99.90;;;;;;5272804;28;20015;-74
2022/01/26 09:13:17;;;;;;;1.20;1.20;;;2.40;99.90;;;;;;5281430;28;20015;-74
2022/01/26 09:15:48;;;;;;;1.00;1.00;;;2.60;99.90;;;;;;5266062;27;20075;-74
2022/01/26 09:18:30;;;;;;;1.20;1.20;;;2.50;99.90;;;;;;5282825;27;20031;-76
2022/01/26 09:21:05;;;;;;;0.40;0.40;;;2.40;99.90;;;;;;5296718;27;20378;-76
2022/01/26 09:23:36;;;;;;;;;;;2.40;99.90;;;;;;5284189;28;20051;-76
2022/01/26 09:26:08;;;;;;;0.60;0.60;;;2.50;99.90;;;;;;5248198;28;19907;-76
2022/01/26 09:28:43;;;;;;;0.55;0.55;;;2.60;99.90;;;;;;5283664;28;20027;-76
2022/01/26 09:31:24;;;;;;;1.15;1.15;;;2.50;99.90;;;;;;5284029;28;20008;-76
2022/01/26 09:33:57;;;;;;;0.70;0.70;;;2.50;99.90;;;;;;5283237;28;20043;-76
2022/01/26 09:36:31;;;;;;;0.90;0.90;;;2.50;99.90;;;;;;5284697;28;20035;-75
2022/01/26 09:39:02;;;;;;;2.03;1.92;;;2.50;99.90;;;;;;5265941;28;20035;-76
2022/01/26 09:41:37;;;;;;;0.50;0.50;;;2.40;99.90;;;;;;5281897;28;20122;-76
2022/01/26 09:44:10;;;;;;;0.40;0.40;;;2.50;99.90;;;;;;5263824;28;20214;-76
2022/01/26 09:46:42;;;;;;;0.63;0.63;;;2.60;99.90;;;;;;5266734;28;20348;-76
2022/01/26 09:49:17;;;;;;;0.60;0.60;;;2.60;99.90;;;;;;5267386;28;20088;-76
2022/01/26 09:51:51;;;;;;;0.55;0.55;;;2.60;99.90;;;;;;5266598;28;20019;-76
2022/01/26 09:54:24;;;;;;;;;;;2.50;99.90;;;;;;5283732;28;20514;-76
2022/01/26 09:57:03;;;;;;;0.70;0.70;;;2.60;99.90;;;;;;5282969;28;20065;-76
2022/01/26 09:59:34;;;;;;;1.45;1.45;;;2.60;99.90;;;;;;5264647;28;20950;-76
2022/01/26 10:02:05;;;;;;;0.50;0.50;;;2.60;99.90;;;;;;5265765;28;20027;-76
2022/01/26 10:04:40;;;;;;;0.50;0.50;;;2.50;99.90;;;;;;5254421;28;20043;-74
2022/01/26 10:16:17;;;;;;;0.98;0.98;;;2.60;99.90;;;;;;5217060;28;20127;-74
2022/01/26 10:18:57;;;;;;;0.73;0.73;;;2.80;99.90;;;;;;5212473;28;20285;-73
2022/01/26 10:21:28;;;;;;;0.70;0.70;;;2.70;99.90;;;;;;5221409;28;20024;-74
2022/01/26 10:24:08;;;;;;;0.88;0.88;;;2.80;99.90;;;;;;5187295;28;20033;-74
2022/01/26 10:26:39;;;;;;;0.70;0.70;;;2.80;99.90;;;;;;5225773;28;20037;-74
2022/01/26 10:29:19;;;;;;;1.73;1.63;;;2.80;99.90;;;;;;5261144;28;20036;-74
2022/01/26 10:31:50;;;;;;;0.50;0.50;;;2.80;99.90;;;;;;5225285;28;20040;-74
2022/01/26 10:34:23;;;;;;;0.73;0.73;;;2.80;99.90;;;;;;5213490;28;20172;-76
2022/01/26 10:37:00;;;;;;;3.53;2.55;;;3.00;99.90;;;;;;5221296;28;20028;-75
2022/01/26 10:39:46;;;;;;;0.80;0.80;;;3.00;99.90;;;;;;5227462;28;20024;-75
2022/01/26 10:42:24;;;;;;;0.70;0.70;;;3.10;99.90;;;;;;5232185;28;20027;-75
2022/01/26 10:47:47;;;;;;;0.40;0.40;;;3.50;99.90;;;;;;5282891;28;20031;-74
2022/01/26 10:53:19;;;;;;;0.55;0.55;;;3.30;99.90;;;;;;5273377;28;20039;-75
2022/01/26 10:55:53;;;;;;;0.60;0.60;;;3.30;99.90;;;;;;5282030;28;20121;-75
2022/01/26 10:58:24;;;;;;;0.50;0.50;;;3.30;99.90;;;;;;5264708;28;20127;-74
2022/01/26 11:00:57;;;;;;;0.50;0.50;;;3.10;99.90;;;;;;5282019;28;20329;-74
2022/01/26 11:03:29;;;;;;;0.85;0.85;;;3.30;99.90;;;;;;5258494;28;20020;-74
2022/01/26 11:06:07;;;;;;;0.50;0.50;;;3.30;99.90;;;;;;5249705;28;20052;-74
2022/01/26 11:08:42;;;;;;;0.40;0.40;;;3.10;99.90;;;;;;5276769;28;20094;-75
2022/01/26 11:11:24;;;;;;;0.60;0.60;;;3.40;99.90;;;;;;5280575;28;20016;-74
2022/01/26 11:13:55;;;;;;;0.80;0.80;;;3.50;99.90;;;;;;5262109;28;20612;-74
2022/01/26 11:16:26;;;;;;;1.02;1.02;;;3.30;99.90;;;;;;5267872;28;20039;-73
2022/01/26 11:18:58;;;;;;;0.40;0.40;;;3.30;99.90;;;;;;5279115;28;20016;-74
2022/01/26 11:21:38;;;;;;;0.43;0.43;;;3.30;99.90;;;;;;5282148;28;20020;-75
2022/01/26 11:24:20;;;;;;;0.88;0.88;;;3.60;99.90;;;;;;5281217;28;20098;-74
2022/01/26 11:27:05;;;;;;;2.13;2.03;;;3.80;99.90;;;;;;5281598;28;20024;-75
2022/01/26 11:29:40;;;;;;;0.40;0.40;;;4.30;99.90;;;;;;5279865;28;20024;-75
2022/01/26 11:32:28;;;;;;;0.70;0.70;;;4.20;99.90;;;;;;5279799;28;20039;-75
2022/01/26 11:35:08;;;;;;;0.35;0.35;;;4.10;99.90;;;;;;5281298;28;20508;-76
2022/01/26 11:37:52;;;;;;;1.20;1.20;;;3.90;99.90;;;;;;5280691;28;20015;-75
2022/01/26 11:46:11;;;;;;;0.55;0.55;;;3.50;99.90;;;;;;5259803;28;20269;-75
2022/01/26 11:48:48;;;;;;;2.45;2.25;;;3.40;99.90;;;;;;5279980;28;20195;-75
2022/01/26 11:51:20;;;;;;;0.77;0.77;;;3.40;99.90;;;;;;5263505;28;20465;-74
2022/01/26 11:53:51;;;;;;;0.63;0.63;;;3.00;99.90;;;;;;5280074;28;20354;-76
2022/01/26 11:56:25;;;;;;;0.60;0.60;;;2.80;99.90;;;;;;5280712;28;20027;-75
2022/01/26 11:58:56;;;;;;;0.60;0.60;;;3.10;99.90;;;;;;5246134;28;20385;-75
2022/01/26 12:01:40;;;;;;;2.08;1.98;;;2.90;99.90;;;;;;5246462;28;20024;-75
2022/01/26 12:04:16;;;;;;;0.50;0.50;;;2.80;99.90;;;;;;5247050;28;20036;-75
2022/01/26 12:06:53;;;;;;;0.47;0.47;;;2.80;99.90;;;;;;5278473;28;20034;-75
2022/01/26 12:09:26;;;;;;;0.50;0.50;;;2.80;99.90;;;;;;5280405;28;20031;-76
2022/01/26 12:11:57;;;;;;;0.52;0.52;;;2.50;99.90;;;;;;5281249;28;20024;-75
2022/01/26 12:14:28;;;;;;;0.90;0.90;;;2.50;99.90;;;;;;5289816;28;20498;-75
2022/01/26 12:17:04;;;;;;;0.50;0.50;;;2.40;99.90;;;;;;5283991;28;20057;-75
2022/01/26 12:20:07;;;;;;;0.75;0.75;;;2.30;99.90;;;;;;5286734;28;20035;-75
2022/01/26 12:34:37;;;;;;;0.70;0.70;;;2.40;99.90;;;;;;5270256;28;20517;-74
2022/01/26 12:37:33;;;;;;;0.85;0.85;;;2.40;99.90;;;;;;5271001;28;20027;-75
2022/01/26 12:43:05;;;;;;;0.40;0.40;;;2.20;99.90;;;;;;5273768;28;20011;-75
2022/01/26 12:45:39;;;;;;;0.47;0.47;;;2.30;99.90;;;;;;5266218;28;20663;-74
2022/01/26 12:48:10;;;;;;;1.67;1.58;;;2.30;99.90;;;;;;5260633;28;20291;-75
2022/01/26 12:50:41;;;;;;;0.70;0.70;;;2.40;99.90;;;;;;5283777;28;20085;-75
2022/01/26 12:53:13;;;;;;;0.47;0.47;;;2.40;99.90;;;;;;5284879;28;20019;-77
2022/01/26 12:55:59;;;;;;;1.02;1.02;;;2.40;99.90;;;;;;5266486;28;20024;-75
2022/01/26 12:58:34;;;;;;;0.93;0.93;;;2.50;99.90;;;;;;5281226;28;20073;-75
2022/01/26 13:01:10;;;;;;;0.70;0.70;;;2.40;99.90;;;;;;5284985;28;20047;-74
2022/01/26 13:03:41;;;;;;;0.68;0.68;;;2.30;99.90;;;;;;5284310;28;20087;-74
2022/01/26 13:06:27;;;;;;;0.50;0.50;;;2.30;99.90;;;;;;5271105;27;20109;-74
2022/01/26 13:09:02;;;;;;;1.50;1.40;;;2.30;99.90;;;;;;5284138;28;20023;-75
2022/01/26 13:11:38;;;;;;;1.50;1.45;;;2.20;99.90;;;;;;5259478;28;20416;-75
2022/01/26 13:14:22;;;;;;;0.50;0.50;;;2.10;99.90;;;;;;5280864;28;20533;-75
2022/01/26 13:20:11;;;;;;;0.77;0.77;;;2.20;99.90;;;;;;5278562;28;20030;-74
2022/01/26 13:23:28;;;;;;;0.52;0.52;;;2.20;99.90;;;;;;5283815;28;20309;-76
2022/01/26 13:28:43;;;;;;;1.38;1.27;;;2.20;99.90;;;;;;5282565;27;20455;-74
2022/01/26 13:45:10;;;;;;;0.73;0.73;;;2.20;99.90;;;;;;5284360;28;20633;-75
2022/01/26 13:50:35;;;;;;;0.52;0.52;;;2.20;99.90;;;;;;5283251;28;20514;-75
2022/01/26 13:53:44;;;;;;;0.40;0.40;;;2.20;99.90;;;;;;5282637;28;20503;-74
2022/01/26 13:56:11;;;;;;;1.88;1.77;;;2.30;99.90;;;;;;5266263;28;20062;-76
2022/01/26 14:01:40;;;;;;;0.65;0.65;;;2.20;99.90;;;;;;5252214;28;20103;-74
2022/01/26 14:04:16;;;;;;;0.50;0.50;;;2.20;99.90;;;;;;5272514;28;20036;-74
2022/01/26 14:06:47;;;;;;;1.15;1.15;;;2.20;99.90;;;;;;5265972;28;20147;-75
2022/01/26 14:09:18;;;;;;;1.05;1.05;;;2.20;99.90;;;;;;5301436;27;20038;-74
2022/01/26 14:11:52;;;;;;;0.90;0.90;;;2.20;99.90;;;;;;5270092;27;20050;-74
2022/01/26 14:14:32;;;;;;;0.60;0.60;;;2.20;99.90;;;;;;5285837;27;20067;-74
2022/01/26 14:17:15;;;;;;;1.13;1.13;;;2.20;99.90;;;;;;5281783;28;20051;-74
2022/01/26 14:25:33;;;;;;;0.98;0.98;;;2.30;99.90;;;;;;5265702;28;20340;-75
2022/01/26 14:28:03;;;;;;;0.60;0.60;;;2.40;99.90;;;;;;5281754;28;20910;-75
2022/01/26 14:30:45;;;;;;;3.55;1.40;;;2.30;99.90;;;;;;5282698;28;20056;-74
2022/01/26 15:35:07;;;;;;;1.05;1.05;;;2.30;99.90;;;;;;5279299;28;20094;-76
2022/01/26 16:04:18;;;;;;;0.82;0.82;;;2.30;99.90;;;;;;5275181;28;20230;-75
2022/01/26 16:08:09;;;;;;;0.70;0.70;;;2.40;99.90;;;;;;5281433;28;20031;-76
2022/01/26 16:39:03;;;;;;;2.00;1.90;;;2.50;99.90;;;;;;5248257;28;20394;-75
2022/01/26 18:50:07;;;;;;;0.73;0.73;;;2.30;99.90;;;;;;5280571;27;20066;-73
2022/01/26 18:52:40;;;;;;;0.40;0.40;;;2.30;99.90;;;;;;5278218;28;20093;-75
2022/01/26 18:55:14;;;;;;;2.30;2.20;;;2.30;99.90;;;;;;5262518;28;20437;-74
2022/01/26 18:57:49;;;;;;;1.33;1.33;;;2.30;99.90;;;;;;5278142;28;20236;-75
2022/01/26 19:00:22;;;;;;;0.80;0.80;;;2.30;99.90;;;;;;5261643;28;20031;-74
2022/01/26 19:02:59;;;;;;;0.77;0.77;;;2.30;99.90;;;;;;5265804;28;20313;-74
2022/01/26 19:05:32;;;;;;;0.60;0.60;;;2.30;99.90;;;;;;5256601;28;20052;-74
2022/01/26 19:08:03;;;;;;;0.70;0.70;;;2.40;99.90;;;;;;5273155;28;20386;-73
2022/01/26 19:10:41;;;;;;;0.70;0.70;;;2.40;99.90;;;;;;5261430;28;20023;-75
2022/01/26 19:13:12;;;;;;;0.82;0.82;;;2.40;99.90;;;;;;5280648;28;20368;-74
2022/01/26 19:15:44;;;;;;;0.50;0.50;;;2.40;99.90;;;;;;5277464;28;20047;-74
2022/01/26 19:18:24;;;;;;;0.68;0.68;;;2.40;99.90;;;;;;5257662;28;20556;-74
2022/01/26 19:24:01;;;;;;;0.68;0.68;;;2.40;99.90;;;;;;5261096;28;20020;-74
2022/01/26 19:26:40;;;;;;;1.10;1.10;;;2.40;99.90;;;;;;5265988;28;20028;-74
2022/01/26 19:29:27;;;;;;;0.65;0.65;;;2.40;99.90;;;;;;5279225;28;20031;-74
2022/01/26 19:43:38;;;;;;;0.70;0.70;;;2.40;99.90;;;;;;5282571;27;20027;-74
2022/01/26 19:51:37;;;;;;;0.68;0.68;;;2.40;99.90;;;;;;5281230;28;20039;-75
2022/01/26 19:54:08;;;;;;;1.10;1.10;;;2.40;99.90;;;;;;5263497;28;20581;-74
2022/01/26 19:56:38;;;;;;;1.98;1.92;;;2.40;99.90;;;;;;5263732;28;20080;-74
2022/01/26 19:59:09;;;;;;;0.73;0.73;;;2.40;99.90;;;;;;5281582;28;20031;-74
2022/01/26 20:01:40;;;;;;;0.90;0.90;;;2.40;99.90;;;;;;5280926;28;20255;-75
2022/01/26 20:04:12;;;;;;;0.98;0.98;;;2.30;99.90;;;;;;5270881;28;20035;-74
2022/01/26 20:06:49;;;;;;;0.63;0.63;;;2.30;99.90;;;;;;5280293;28;20019;-75
2022/01/26 20:09:31;;;;;;;2.03;1.92;;;2.30;99.90;;;;;;5280684;28;20023;-75
2022/01/26 20:12:06;;;;;;;1.05;1.05;;;2.30;99.90;;;;;;5279440;28;20045;-75
2022/01/26 20:14:39;;;;;;;0.85;0.85;;;2.30;99.90;;;;;;5260753;28;20012;-75
2022/01/26 20:17:14;;;;;;;0.80;0.80;;;2.30;99.90;;;;;;5280236;28;20141;-75
2022/01/26 20:19:47;;;;;;;0.88;0.88;;;2.20;99.90;;;;;;5291282;28;20027;-75
2022/01/26 20:22:22;;;;;;;0.85;0.85;;;2.30;99.90;;;;;;5258472;28;20079;-74
2022/01/26 20:24:53;;;;;;;0.98;0.98;;;2.30;99.90;;;;;;5279894;28;20133;-74
2022/01/26 20:27:29;;;;;;;0.80;0.80;;;2.40;99.90;;;;;;5263589;28;20027;-74
2022/01/26 20:30:12;;;;;;;1.17;1.15;;;2.40;99.90;;;;;;5280485;28;20066;-75
2022/01/26 20:32:52;;;;;;;1.02;1.02;;;2.40;99.90;;;;;;5280697;28;20205;-75
2022/01/26 20:35:25;;;;;;;1.20;1.20;;;2.40;99.90;;;;;;5281051;28;20018;-75
2022/01/26 20:38:01;;;;;;;1.50;1.48;;;2.30;99.90;;;;;;5281481;28;20023;-74
2022/01/26 20:40:32;;;;;;;1.65;1.30;;;2.30;99.90;;;;;;5263506;28;20051;-74
2022/01/26 20:43:04;;;;;;;1.23;1.23;;;2.20;99.90;;;;;;5265895;28;20027;-74
2022/01/26 20:45:38;;;;;;;3.40;2.30;;;2.20;99.90;;;;;;5258614;28;20316;-74
2022/01/26 20:48:08;;;;;;;1.02;1.02;;;2.10;99.90;;;;;;5263110;28;20032;-74
2022/01/26 20:50:41;;;;;;;1.08;1.08;;;2.10;99.90;;;;;;5280706;28;20280;-74
2022/01/26 20:53:12;;;;;;;1.17;1.17;;;2.10;99.90;;;;;;5279322;28;20016;-75